createdAt,value
2023-03-11T00:00:50.181Z,1.20
2023-03-11T00:03:23.316Z,1.30
2023-03-11T00:05:54.393Z,1.20
2023-03-11T00:08:25.885Z,1.20
2023-03-11T00:11:00.307Z,1.20
2023-03-11T00:13:30.804Z,1.20
2023-03-11T00:16:00.923Z,1.20
2023-03-11T00:18:31.866Z,1.30
2023-03-11T00:21:01.390Z,1.20
2023-03-11T00:23:30.375Z,1.20
2023-03-11T00:26:00.103Z,1.20
2023-03-11T00:28:28.163Z,1.20
2023-03-11T00:30:56.147Z,1.20
2023-03-11T00:33:24.522Z,1.20
2023-03-11T00:35:53.335Z,1.20
2023-03-11T00:38:22.396Z,1.20
2023-03-11T00:40:51.547Z,1.10
2023-03-11T00:43:19.794Z,1.10
2023-03-11T00:45:48.015Z,1.10
2023-03-11T00:48:16.167Z,1.10
2023-03-11T00:50:44.918Z,1.10
2023-03-11T00:53:13.169Z,1.00
2023-03-11T00:55:41.410Z,1.00
2023-03-11T00:58:13.018Z,1.10
2023-03-11T01:00:45.298Z,1.10
2023-03-11T01:03:13.687Z,1.00
2023-03-11T01:05:41.781Z,1.10
2023-03-11T01:08:09.923Z,1.00
2023-03-11T01:10:39.218Z,1.00
2023-03-11T01:13:07.072Z,1.00
2023-03-11T01:15:39.782Z,1.00
2023-03-11T01:18:08.318Z,1.10
2023-03-11T01:20:39.274Z,1.00
2023-03-11T01:23:09.532Z,1.00
2023-03-11T01:25:37.696Z,1.10
2023-03-11T01:28:08.459Z,1.10
2023-03-11T01:30:43.124Z,1.10
2023-03-11T01:33:20.372Z,1.10
2023-03-11T01:35:49.453Z,1.10
2023-03-11T01:38:17.668Z,1.10
2023-03-11T01:40:52.476Z,1.10
2023-03-11T01:43:43.887Z,1.10
2023-03-11T01:46:54.424Z,1.00
2023-03-11T01:49:26.914Z,1.10
2023-03-11T01:52:08.027Z,1.10
2023-03-11T01:54:42.716Z,1.00
2023-03-11T01:57:15.242Z,1.10
2023-03-11T01:59:56.871Z,1.10
2023-03-11T02:02:51.504Z,1.10
2023-03-11T02:05:24.997Z,1.10
2023-03-11T02:07:56.400Z,1.00
2023-03-11T02:10:28.992Z,0.90
2023-03-11T02:12:58.620Z,0.80
2023-03-11T02:15:30.759Z,0.80
2023-03-11T02:18:05.362Z,0.80
2023-03-11T02:21:20.205Z,0.70
2023-03-11T02:24:29.779Z,0.60
2023-03-11T02:27:09.293Z,0.70
2023-03-11T02:29:39.790Z,0.70
2023-03-11T02:32:11.158Z,0.60
2023-03-11T02:34:44.084Z,0.60
2023-03-11T02:37:17.934Z,0.50
2023-03-11T02:41:07.492Z,0.50
2023-03-11T02:43:54.921Z,0.30
2023-03-11T02:46:25.044Z,0.40
2023-03-11T02:48:56.311Z,0.40
2023-03-11T02:51:24.502Z,0.40
2023-03-11T02:54:03.685Z,0.40
2023-03-11T02:56:32.884Z,0.40
2023-03-11T02:59:00.639Z,0.40
2023-03-11T03:01:29.872Z,0.50
2023-03-11T03:03:57.745Z,0.50
2023-03-11T03:06:26.499Z,0.50
2023-03-11T03:08:54.893Z,0.60
2023-03-11T03:11:22.954Z,0.60
2023-03-11T03:13:50.861Z,0.70
2023-03-11T03:16:19.110Z,0.70
2023-03-11T03:18:48.640Z,0.60
2023-03-11T03:21:16.567Z,0.70
2023-03-11T03:23:44.585Z,0.60
2023-03-11T03:26:14.894Z,0.60
2023-03-11T03:28:45.114Z,0.60
2023-03-11T03:31:14.227Z,0.60
2023-03-11T03:33:44.961Z,0.50
2023-03-11T03:36:16.202Z,0.50
2023-03-11T03:38:59.696Z,0.60
2023-03-11T03:41:32.436Z,0.60
2023-03-11T03:44:00.822Z,0.60
2023-03-11T03:46:30.114Z,0.60
2023-03-11T03:48:59.763Z,0.60
2023-03-11T03:51:29.380Z,0.60
2023-03-11T03:54:04.587Z,0.50
2023-03-11T03:56:32.562Z,0.50
2023-03-11T03:59:01.740Z,0.50
2023-03-11T04:01:36.671Z,0.60
2023-03-11T04:04:05.258Z,0.60
2023-03-11T04:06:33.529Z,0.60
2023-03-11T04:09:05.301Z,0.60
2023-03-11T04:11:35.865Z,0.60
2023-03-11T04:14:07.301Z,0.60
2023-03-11T04:16:40.473Z,0.60
2023-03-11T04:19:12.876Z,0.60
2023-03-11T04:21:40.974Z,0.60
2023-03-11T04:24:09.628Z,0.60
2023-03-11T04:26:39.864Z,0.60
2023-03-11T04:29:12.356Z,0.60
2023-03-11T04:31:44.324Z,0.50
2023-03-11T04:34:12.877Z,0.60
2023-03-11T04:36:41.842Z,0.60
2023-03-11T04:39:12.160Z,0.60
2023-03-11T04:41:43.706Z,0.60
2023-03-11T04:44:15.966Z,0.60
2023-03-11T04:46:44.270Z,0.60
2023-03-11T04:49:12.013Z,0.50
2023-03-11T04:51:40.127Z,0.60
2023-03-11T04:54:09.188Z,0.60
2023-03-11T04:56:37.037Z,0.60
2023-03-11T04:59:06.233Z,0.60
2023-03-11T05:01:36.204Z,0.50
2023-03-11T05:04:06.392Z,0.50
2023-03-11T05:06:34.132Z,0.40
2023-03-11T05:09:04.945Z,0.50
2023-03-11T05:11:35.882Z,0.50
2023-03-11T05:14:04.381Z,0.50
2023-03-11T05:16:32.423Z,0.40
2023-03-11T05:19:00.202Z,0.40
2023-03-11T05:21:28.189Z,0.40
2023-03-11T05:23:56.234Z,0.40
2023-03-11T05:26:24.059Z,0.30
2023-03-11T05:28:51.664Z,0.40
2023-03-11T05:31:19.510Z,0.30
2023-03-11T05:33:47.261Z,0.30
2023-03-11T05:36:15.790Z,0.30
2023-03-11T05:38:45.790Z,0.30
2023-03-11T05:41:14.685Z,0.30
2023-03-11T05:43:44.054Z,0.20
2023-03-11T05:46:12.715Z,0.20
2023-03-11T05:48:40.909Z,0.20
2023-03-11T05:51:11.805Z,0.10
2023-03-11T05:53:48.587Z,0.20
2023-03-11T05:56:23.950Z,0.20
2023-03-11T05:58:54.135Z,0.10
2023-03-11T06:01:22.119Z,0.20
2023-03-11T06:03:50.049Z,0.30
2023-03-11T06:06:18.214Z,0.20
2023-03-11T06:08:50.323Z,0.30
2023-03-11T06:11:26.074Z,0.20
2023-03-11T06:13:58.064Z,0.30
2023-03-11T06:16:28.314Z,0.30
2023-03-11T06:19:01.053Z,0.20
2023-03-11T06:21:32.661Z,0.20
2023-03-11T06:24:01.061Z,0.20
2023-03-11T06:26:33.575Z,0.20
2023-03-11T06:29:02.793Z,0.20
2023-03-11T06:31:32.584Z,0.20
2023-03-11T06:34:07.352Z,0.30
2023-03-11T06:36:35.218Z,0.30
2023-03-11T06:39:04.549Z,0.30
2023-03-11T06:41:35.383Z,0.20
2023-03-11T06:44:05.115Z,0.10
2023-03-11T06:46:34.148Z,0.10
2023-03-11T06:49:08.469Z,0.00
2023-03-11T06:51:39.600Z,0.00
2023-03-11T06:54:07.880Z,0.00
2023-03-11T06:56:35.748Z,0.00
2023-03-11T06:59:06.838Z,0.00
2023-03-11T07:01:37.296Z,0.00
2023-03-11T07:04:07.315Z,0.10
2023-03-11T07:06:37.904Z,0.10
2023-03-11T07:09:16.089Z,0.10
2023-03-11T07:11:45.909Z,0.20
2023-03-11T07:14:20.561Z,0.40
2023-03-11T07:16:52.969Z,0.70
2023-03-11T07:19:31.521Z,1.10
2023-03-11T07:21:59.453Z,1.70
2023-03-11T07:24:27.304Z,2.00
2023-03-11T07:26:55.308Z,2.40
2023-03-11T07:29:23.016Z,2.40
2023-03-11T07:31:50.842Z,2.50
2023-03-11T07:34:18.945Z,2.90
2023-03-11T07:36:46.987Z,3.00
2023-03-11T07:39:18.873Z,2.80
2023-03-11T07:41:47.652Z,2.70
2023-03-11T07:44:18.844Z,2.90
2023-03-11T07:46:47.380Z,3.00
2023-03-11T07:49:15.420Z,3.20
2023-03-11T07:51:44.116Z,3.50
2023-03-11T07:54:14.429Z,3.30
2023-03-11T07:56:42.629Z,3.30
2023-03-11T07:59:10.758Z,3.50
2023-03-11T08:01:41.378Z,3.40
2023-03-11T08:04:14.496Z,3.40
2023-03-11T08:06:47.325Z,3.40
2023-03-11T08:09:15.787Z,3.20
2023-03-11T08:11:44.038Z,3.40
2023-03-11T08:14:11.846Z,2.90
2023-03-11T08:16:41.511Z,2.50
2023-03-11T08:19:14.143Z,2.60
2023-03-11T08:21:41.999Z,2.80
2023-03-11T08:24:15.081Z,3.60
2023-03-11T08:26:43.640Z,3.80
2023-03-11T08:29:11.527Z,3.80
2023-03-11T08:31:39.466Z,3.90
2023-03-11T08:34:11.916Z,4.60
2023-03-11T08:36:39.821Z,5.10
2023-03-11T08:39:07.889Z,5.30
2023-03-11T08:41:36.186Z,5.50
2023-03-11T08:44:04.294Z,5.00
2023-03-11T08:46:39.661Z,4.80
2023-03-11T08:49:08.046Z,4.60
2023-03-11T08:51:37.002Z,4.90
2023-03-11T08:54:06.081Z,5.00
2023-03-11T08:56:33.972Z,5.00
2023-03-11T08:59:02.554Z,5.50
2023-03-11T09:01:30.453Z,5.20
2023-03-11T09:03:58.401Z,5.00
2023-03-11T09:06:26.581Z,5.20
2023-03-11T09:08:54.380Z,5.80
2023-03-11T09:11:23.019Z,6.10
2023-03-11T09:13:51.257Z,5.70
2023-03-11T09:16:25.346Z,5.50
2023-03-11T09:18:53.169Z,5.30
2023-03-11T09:21:21.443Z,5.30
2023-03-11T09:23:49.643Z,5.70
2023-03-11T09:26:17.562Z,6.90
2023-03-11T09:28:50.596Z,7.40
2023-03-11T09:31:31.786Z,6.50
2023-03-11T09:34:04.750Z,6.20
2023-03-11T09:36:34.115Z,6.10
2023-03-11T09:39:02.311Z,5.50
2023-03-11T09:41:59.650Z,5.80
2023-03-11T09:45:24.349Z,5.80
2023-03-11T09:48:40.521Z,5.00
2023-03-11T09:52:19.353Z,4.50
2023-03-11T09:54:55.072Z,4.60
2023-03-11T09:57:38.185Z,4.60
2023-03-11T10:00:13.075Z,4.30
2023-03-11T10:02:41.839Z,4.10
2023-03-11T10:05:28.644Z,4.40
2023-03-11T10:08:22.997Z,4.50
2023-03-11T10:11:16.740Z,4.60
2023-03-11T10:14:36.327Z,5.10
2023-03-11T10:18:41.121Z,5.10
2023-03-11T10:22:16.545Z,5.10
2023-03-11T10:25:11.913Z,5.10
2023-03-11T10:28:14.730Z,5.20
2023-03-11T10:31:23.240Z,5.20
2023-03-11T10:34:26.658Z,5.40
2023-03-11T10:37:22.384Z,4.90
2023-03-11T10:39:51.615Z,4.80
2023-03-11T10:42:29.622Z,4.90
2023-03-11T10:44:57.642Z,4.90
2023-03-11T10:47:26.173Z,5.20
2023-03-11T10:49:53.838Z,5.40
2023-03-11T10:52:21.695Z,5.00
2023-03-11T10:55:03.798Z,5.20
2023-03-11T10:57:39.085Z,5.40
2023-03-11T11:00:12.644Z,5.20
2023-03-11T11:02:51.854Z,5.10
2023-03-11T11:05:22.828Z,5.20
2023-03-11T11:08:03.906Z,5.50
2023-03-11T11:10:34.567Z,5.80
2023-03-11T11:13:13.115Z,5.60
2023-03-11T11:16:21.044Z,6.00
2023-03-11T11:19:16.443Z,5.60
2023-03-11T11:21:52.315Z,5.40
2023-03-11T11:24:31.843Z,5.30
2023-03-11T11:27:29.481Z,5.50
2023-03-11T11:30:09.798Z,5.70
2023-03-11T11:32:38.926Z,5.50
2023-03-11T11:35:19.581Z,5.50
2023-03-11T11:38:00.026Z,5.70
2023-03-11T11:40:34.181Z,5.90
2023-03-11T11:43:55.194Z,6.10
2023-03-11T11:46:47.705Z,6.40
2023-03-11T11:49:37.043Z,6.40
2023-03-11T11:52:23.338Z,6.50
2023-03-11T11:55:28.146Z,6.30
2023-03-11T11:57:57.319Z,5.80
2023-03-11T12:01:01.846Z,6.20
2023-03-11T12:04:28.276Z,6.90
2023-03-11T12:07:32.001Z,7.10
2023-03-11T12:10:53.843Z,6.70
2023-03-11T12:14:02.208Z,6.80
2023-03-11T12:17:04.215Z,6.40
2023-03-11T12:20:00.706Z,6.40
2023-03-11T12:23:20.777Z,6.10
2023-03-11T12:26:25.012Z,6.00
2023-03-11T12:29:08.508Z,6.00
2023-03-11T12:31:42.051Z,5.60
2023-03-11T12:34:21.166Z,5.50
2023-03-11T12:36:52.819Z,5.30
2023-03-11T12:39:34.589Z,5.30
2023-03-11T12:42:11.480Z,5.30
2023-03-11T12:44:41.375Z,5.40
2023-03-11T12:47:09.940Z,5.60
2023-03-11T12:49:46.692Z,5.70
2023-03-11T12:52:14.323Z,5.50
2023-03-11T12:55:04.156Z,5.40
2023-03-11T12:57:49.231Z,5.40
2023-03-11T13:01:03.349Z,5.40
2023-03-11T13:04:05.407Z,5.20
2023-03-11T13:07:25.805Z,5.40
2023-03-11T13:10:08.370Z,5.40
2023-03-11T13:12:51.492Z,5.40
2023-03-11T13:15:20.285Z,5.50
2023-03-11T13:18:17.705Z,5.50
2023-03-11T13:20:56.304Z,5.20
2023-03-11T13:23:37.539Z,5.30
2023-03-11T13:26:43.294Z,5.50
2023-03-11T13:29:56.413Z,5.70
2023-03-11T13:33:22.180Z,5.60
2023-03-11T13:36:34.113Z,5.20
2023-03-11T13:39:22.524Z,5.00
2023-03-11T13:41:50.682Z,4.80
2023-03-11T13:44:40.435Z,4.80
2023-03-11T13:47:19.091Z,5.00
2023-03-11T13:50:28.375Z,5.20
2023-03-11T13:53:03.791Z,5.40
2023-03-11T13:55:48.035Z,5.60
2023-03-11T13:58:29.271Z,5.90
2023-03-11T14:01:02.676Z,5.90
2023-03-11T14:03:43.838Z,5.90
2023-03-11T14:06:21.282Z,5.80
2023-03-11T14:08:58.216Z,5.50
2023-03-11T14:11:29.968Z,5.30
2023-03-11T14:13:57.915Z,5.40
2023-03-11T14:16:44.316Z,5.60
2023-03-11T14:19:20.174Z,5.70
2023-03-11T14:21:52.352Z,5.80
2023-03-11T14:24:31.721Z,6.00
2023-03-11T14:27:09.158Z,6.20
2023-03-11T14:29:43.835Z,6.10
2023-03-11T14:32:32.676Z,6.00
2023-03-11T14:35:01.770Z,6.00
2023-03-11T14:37:39.097Z,5.90
2023-03-11T14:40:42.098Z,6.20
2023-03-11T14:43:12.702Z,6.10
2023-03-11T14:45:44.063Z,6.20
2023-03-11T14:48:40.511Z,6.00
2023-03-11T14:51:33.554Z,6.00
2023-03-11T14:54:30.726Z,5.90
2023-03-11T14:57:24.504Z,5.80
2023-03-11T14:59:55.959Z,5.60
2023-03-11T15:03:08.178Z,5.60
2023-03-11T15:05:57.816Z,5.60
2023-03-11T15:08:37.443Z,5.60
2023-03-11T15:11:11.607Z,5.50
2023-03-11T15:13:47.506Z,5.60
2023-03-11T15:16:37.342Z,5.70
2023-03-11T15:19:44.134Z,5.70
2023-03-11T15:22:33.841Z,5.70
2023-03-11T15:25:12.695Z,5.80
2023-03-11T15:27:40.981Z,5.80
2023-03-11T15:30:27.102Z,5.90
2023-03-11T15:32:58.022Z,5.80
2023-03-11T15:35:45.263Z,5.70
2023-03-11T15:38:28.603Z,5.60
2023-03-11T15:41:03.909Z,5.60
2023-03-11T15:43:48.607Z,5.50
2023-03-11T15:46:16.536Z,5.40
2023-03-11T15:48:44.577Z,5.40
2023-03-11T15:51:21.201Z,5.40
2023-03-11T15:53:49.650Z,5.40
2023-03-11T15:56:25.791Z,5.40
2023-03-11T15:58:53.640Z,5.50
2023-03-11T16:01:28.692Z,5.60
2023-03-11T16:03:57.309Z,5.70
2023-03-11T16:06:25.300Z,5.80
2023-03-11T16:08:53.322Z,5.70
2023-03-11T16:11:21.282Z,5.60
2023-03-11T16:13:49.179Z,5.60
2023-03-11T16:16:18.980Z,5.60
2023-03-11T16:18:47.142Z,5.70
2023-03-11T16:21:23.470Z,5.60
2023-03-11T16:23:52.504Z,5.50
2023-03-11T16:26:23.136Z,5.50
2023-03-11T16:28:50.919Z,5.40
2023-03-11T16:31:18.878Z,5.30
2023-03-11T16:33:47.112Z,5.30
2023-03-11T16:36:14.892Z,5.20
2023-03-11T16:38:50.797Z,5.20
2023-03-11T16:41:18.860Z,5.00
2023-03-11T16:43:46.849Z,4.90
2023-03-11T16:46:14.720Z,4.80
2023-03-11T16:48:42.766Z,4.80
2023-03-11T16:51:10.775Z,4.80
2023-03-11T16:53:38.625Z,4.70
2023-03-11T16:56:07.435Z,4.70
2023-03-11T16:58:35.447Z,4.60
2023-03-11T17:01:03.232Z,4.60
2023-03-11T17:03:41.003Z,4.50
2023-03-11T17:06:10.830Z,4.40
2023-03-11T17:08:38.535Z,4.30
2023-03-11T17:11:13.850Z,4.20
2023-03-11T17:13:41.637Z,4.00
2023-03-11T17:16:09.958Z,3.90
2023-03-11T17:18:37.805Z,3.70
2023-03-11T17:21:14.322Z,3.70
2023-03-11T17:23:44.156Z,3.70
2023-03-11T17:26:17.379Z,3.60
2023-03-11T17:28:45.980Z,3.50
2023-03-11T17:31:17.522Z,3.40
2023-03-11T17:33:46.522Z,3.30
2023-03-11T17:36:18.044Z,3.10
2023-03-11T17:38:47.801Z,2.90
2023-03-11T17:41:18.801Z,2.70
2023-03-11T17:43:50.279Z,2.60
2023-03-11T17:46:22.665Z,2.40
2023-03-11T17:48:51.307Z,2.20
2023-03-11T17:51:26.362Z,2.10
2023-03-11T17:53:56.657Z,1.90
2023-03-11T17:56:25.957Z,1.70
2023-03-11T17:58:53.818Z,1.60
2023-03-11T18:01:28.269Z,1.50
2023-03-11T18:03:57.293Z,1.40
2023-03-11T18:06:25.499Z,1.20
2023-03-11T18:08:53.828Z,1.20
2023-03-11T18:11:27.572Z,1.00
2023-03-11T18:13:58.281Z,0.90
2023-03-11T18:16:30.027Z,0.80
2023-03-11T18:18:58.356Z,0.70
2023-03-11T18:21:31.170Z,0.70
2023-03-11T18:24:02.381Z,0.60
2023-03-11T18:26:32.866Z,0.60
2023-03-11T18:29:03.180Z,0.60
2023-03-11T18:31:33.567Z,0.50
2023-03-11T18:34:12.706Z,0.50
2023-03-11T18:36:43.819Z,0.40
2023-03-11T18:39:14.268Z,0.40
2023-03-11T18:41:43.895Z,0.30
2023-03-11T18:44:12.227Z,0.30
2023-03-11T18:46:42.530Z,0.30
2023-03-11T18:49:16.827Z,0.20
2023-03-11T18:51:44.715Z,0.10
2023-03-11T18:54:12.663Z,0.10
2023-03-11T18:56:40.871Z,0.00
2023-03-11T18:59:12.849Z,0.00
2023-03-11T19:01:41.494Z,0.00
2023-03-11T19:04:11.360Z,0.00
2023-03-11T19:06:39.781Z,-0.10
2023-03-11T19:09:08.154Z,-0.10
2023-03-11T19:11:36.182Z,-0.10
2023-03-11T19:14:04.863Z,-0.10
2023-03-11T19:16:33.051Z,-0.20
2023-03-11T19:19:01.702Z,-0.20
2023-03-11T19:21:29.895Z,-0.30
2023-03-11T19:23:58.340Z,-0.30
2023-03-11T19:26:43.254Z,-0.30
2023-03-11T19:29:14.850Z,-0.40
2023-03-11T19:31:46.108Z,-0.30
2023-03-11T19:34:13.941Z,-0.40
2023-03-11T19:36:41.791Z,-0.40
2023-03-11T19:39:09.712Z,-0.40
2023-03-11T19:41:37.549Z,-0.30
2023-03-11T19:44:05.512Z,-0.30
2023-03-11T19:46:34.896Z,-0.30
2023-03-11T19:49:04.967Z,-0.40
2023-03-11T19:51:48.640Z,-0.40
2023-03-11T19:54:17.315Z,-0.50
2023-03-11T19:56:46.372Z,-0.50
2023-03-11T19:59:15.042Z,-0.40
2023-03-11T20:01:42.979Z,-0.30
2023-03-11T20:04:11.241Z,-0.10
2023-03-11T20:06:39.472Z,0.00
2023-03-11T20:09:07.532Z,0.20
2023-03-11T20:11:40.845Z,0.30
2023-03-11T20:14:11.187Z,0.40
2023-03-11T20:16:39.807Z,0.50
2023-03-11T20:19:08.056Z,0.50
2023-03-11T20:21:39.498Z,0.50
2023-03-11T20:24:09.725Z,0.50
2023-03-11T20:26:38.900Z,0.60
2023-03-11T20:29:07.542Z,0.60
2023-03-11T20:31:36.983Z,0.60
2023-03-11T20:34:05.211Z,0.60
2023-03-11T20:36:34.827Z,0.60
2023-03-11T20:39:07.941Z,0.60
2023-03-11T20:41:41.485Z,0.70
2023-03-11T20:44:17.193Z,0.70
2023-03-11T20:46:46.849Z,0.70
2023-03-11T20:49:14.941Z,0.70
2023-03-11T20:51:44.038Z,0.70
2023-03-11T20:54:12.180Z,0.80
2023-03-11T20:56:40.507Z,0.70
2023-03-11T20:59:10.047Z,0.70
2023-03-11T21:01:38.011Z,0.70
2023-03-11T21:04:06.836Z,0.70
2023-03-11T21:06:41.332Z,0.60
2023-03-11T21:09:15.596Z,0.60
2023-03-11T21:11:43.795Z,0.60
2023-03-11T21:14:19.095Z,0.50
2023-03-11T21:16:47.104Z,0.40
2023-03-11T21:19:22.840Z,0.40
2023-03-11T21:21:51.381Z,0.20
2023-03-11T21:24:19.424Z,0.20
2023-03-11T21:26:48.798Z,0.10
2023-03-11T21:29:16.853Z,0.00
2023-03-11T21:31:44.769Z,-0.10
2023-03-11T21:34:12.799Z,-0.20
2023-03-11T21:36:41.217Z,-0.30
2023-03-11T21:39:09.293Z,-0.30
2023-03-11T21:41:37.063Z,-0.40
2023-03-11T21:44:04.872Z,-0.40
2023-03-11T21:46:33.882Z,-0.40
2023-03-11T21:49:02.928Z,-0.40
2023-03-11T21:51:30.995Z,-0.40
2023-03-11T21:53:59.480Z,-0.40
2023-03-11T21:56:27.873Z,-0.40
2023-03-11T21:58:56.194Z,-0.40
2023-03-11T22:01:24.694Z,-0.40
2023-03-11T22:03:52.629Z,-0.30
2023-03-11T22:06:20.554Z,-0.30
2023-03-11T22:08:49.625Z,-0.30
2023-03-11T22:11:20.556Z,-0.30
2023-03-11T22:13:52.427Z,-0.30
2023-03-11T22:16:24.463Z,-0.30
2023-03-11T22:18:53.654Z,-0.30
2023-03-11T22:21:22.175Z,-0.20
2023-03-11T22:23:50.867Z,-0.20
2023-03-11T22:26:18.859Z,-0.20
2023-03-11T22:28:47.003Z,-0.10
2023-03-11T22:31:18.674Z,-0.20
2023-03-11T22:33:47.672Z,-0.20
2023-03-11T22:36:15.744Z,-0.10
2023-03-11T22:38:45.475Z,0.00
2023-03-11T22:41:16.906Z,0.10
2023-03-11T22:43:44.752Z,0.10
2023-03-11T22:46:12.773Z,0.20
2023-03-11T22:48:40.887Z,0.20
2023-03-11T22:51:08.968Z,0.30
2023-03-11T22:53:36.741Z,0.30
2023-03-11T22:56:16.058Z,0.40
2023-03-11T22:58:44.734Z,0.40
2023-03-11T23:01:13.693Z,0.40
2023-03-11T23:03:44.045Z,0.50
2023-03-11T23:06:22.198Z,0.50
2023-03-11T23:08:51.313Z,0.60
2023-03-11T23:11:21.933Z,0.70
2023-03-11T23:13:51.293Z,0.70
2023-03-11T23:16:24.559Z,0.70
2023-03-11T23:18:56.000Z,0.70
2023-03-11T23:21:32.894Z,0.70
2023-03-11T23:24:05.194Z,0.70
2023-03-11T23:26:36.629Z,0.70
2023-03-11T23:29:05.793Z,0.70
2023-03-11T23:31:33.974Z,0.80
2023-03-11T23:34:01.804Z,0.90
2023-03-11T23:36:31.487Z,0.90
2023-03-11T23:38:59.996Z,1.00
2023-03-11T23:41:29.501Z,1.00
2023-03-11T23:44:24.710Z,1.00
2023-03-11T23:46:52.576Z,0.90
2023-03-11T23:49:20.232Z,0.80
2023-03-11T23:51:48.040Z,0.70
2023-03-11T23:54:15.896Z,0.50
2023-03-11T23:56:45.130Z,0.40
2023-03-11T23:59:13.329Z,0.30
